Time;durP1;ratioP1;P1;durP2;ratioP2;P2;SDS_P1;SDS_P2;PMS_P1;PMS_P2;Temp;Humidity;BMP_temperature;BMP_pressure;BME280_temperature;BME280_humidity;BME280_pressure;Samples;Min_cycle;Max_cycle;Signal;HPM_P1;HPM_P2
2022/12/04 00:00:38;;;;;;;130.60;51.45;;;;;;;-0.21;100.00;99718.80;4188645;83;21032;-89
2022/12/04 00:06:43;;;;;;;122.90;50.58;;;;;;;-0.26;100.00;99703.23;4187279;84;21058;-88
2022/12/04 00:12:47;;;;;;;119.85;48.00;;;;;;;-0.19;100.00;99711.22;4193612;82;21017;-89
2022/12/04 00:18:50;;;;;;;116.22;47.62;;;;;;;-0.19;100.00;99711.22;4185545;83;20981;-89
2022/12/04 00:24:52;;;;;;;115.60;48.60;;;;;;;-0.19;100.00;99712.56;4199056;82;21064;-88
2022/12/04 00:30:53;;;;;;;119.82;49.18;;;;;;;-0.17;100.00;99713.62;4191824;82;21011;-87
2022/12/04 00:36:54;;;;;;;125.85;50.30;;;;;;;-0.17;100.00;99716.31;4186553;84;21075;-88
2022/12/04 00:42:56;;;;;;;121.35;49.73;;;;;;;-0.17;100.00;99708.23;4175683;84;21114;-88
2022/12/04 00:49:00;;;;;;;129.87;52.75;;;;;;;-0.18;100.00;99716.06;4188011;82;21626;-89
2022/12/04 00:55:00;;;;;;;133.47;53.80;;;;;;;-0.18;100.00;99712.84;4161569;82;21570;-88
2022/12/04 01:01:14;;;;;;;118.25;50.15;;;;;;;-0.20;100.00;99698.86;4142203;84;21023;-88
2022/12/04 01:07:14;;;;;;;121.70;49.75;;;;;;;-0.19;100.00;99685.66;4179537;84;20999;-88
2022/12/04 01:13:15;;;;;;;111.95;48.80;;;;;;;-0.17;100.00;99687.52;4172738;84;21035;-88
2022/12/04 01:19:17;;;;;;;108.05;46.20;;;;;;;-0.14;100.00;99684.25;4173754;82;21023;-87
2022/12/04 01:25:18;;;;;;;106.80;44.65;;;;;;;-0.12;100.00;99673.20;4174853;84;21023;-87
2022/12/04 01:31:21;;;;;;;96.78;42.73;;;;;;;-0.10;100.00;99668.34;4189151;82;21951;-88
2022/12/04 01:37:23;;;;;;;93.12;40.23;;;;;;;-0.14;100.00;99642.54;4176709;83;21675;-87
2022/12/04 01:43:27;;;;;;;97.35;42.30;;;;;;;-0.08;100.00;99658.09;4198885;82;21016;-88
2022/12/04 01:49:46;;;;;;;101.87;42.03;;;;;;;-0.04;100.00;99670.67;4187871;84;21608;-87
2022/12/04 01:55:48;;;;;;;101.18;42.23;;;;;;;-0.03;100.00;99658.81;4186056;82;21451;-87
2022/12/04 02:01:55;;;;;;;98.87;41.60;;;;;;;-0.04;100.00;99665.83;4190096;82;21048;-88
2022/12/04 02:08:03;;;;;;;99.28;39.18;;;;;;;-0.09;100.00;99655.94;4189143;82;21013;-88
2022/12/04 02:14:31;;;;;;;109.05;44.10;;;;;;;-0.07;100.00;99643.00;4193054;82;21114;-87
2022/12/04 02:20:46;;;;;;;94.92;38.88;;;;;;;-0.11;100.00;99655.41;4174628;82;21045;-87
2022/12/04 02:27:03;;;;;;;101.38;39.58;;;;;;;-0.25;100.00;99633.56;4156543;84;22101;-88
2022/12/04 02:33:35;;;;;;;94.83;39.63;;;;;;;-0.20;100.00;99647.73;4172910;84;21670;-88
2022/12/04 02:39:45;;;;;;;99.92;39.48;;;;;;;-0.21;100.00;99657.45;4265492;80;21040;-87
2022/12/04 02:46:01;;;;;;;90.50;38.23;;;;;;;-0.20;100.00;99653.12;4261815;82;21096;-88
2022/12/04 02:52:08;;;;;;;82.35;36.70;;;;;;;-0.19;100.00;99657.40;4279958;82;21008;-87
2022/12/04 02:58:27;;;;;;;85.95;34.08;;;;;;;-0.18;100.00;99657.67;4271830;82;21087;-88
2022/12/04 03:04:29;;;;;;;89.03;34.88;;;;;;;-0.18;100.00;99654.17;4279436;82;21539;-88
2022/12/04 03:10:39;;;;;;;85.87;34.25;;;;;;;-0.18;100.00;99654.17;4285395;81;21021;-88
2022/12/04 03:16:42;;;;;;;97.08;33.70;;;;;;;-0.16;100.00;99654.70;4274322;81;20997;-88
2022/12/04 03:22:47;;;;;;;80.47;32.73;;;;;;;-0.14;100.00;99658.69;4282131;82;21040;-88
2022/12/04 03:29:10;;;;;;;73.57;30.87;;;;;;;-0.14;100.00;99658.69;4272432;82;21092;-89
2022/12/04 03:35:45;;;;;;;72.50;31.12;;;;;;;-0.18;100.00;99657.67;4278089;82;21093;-88
2022/12/04 03:42:01;;;;;;;71.77;30.82;;;;;;;-0.10;100.00;99673.72;4282629;82;21664;-88
2022/12/04 03:48:07;;;;;;;75.43;30.37;;;;;;;-0.10;100.00;99676.41;4275212;82;21025;-88
2022/12/04 03:54:16;;;;;;;78.65;30.95;;;;;;;-0.11;100.00;99665.40;4280735;82;20998;-89
2022/12/04 04:00:21;;;;;;;71.87;28.52;;;;;;;-0.09;100.00;99664.55;4280638;82;21041;-88
2022/12/04 04:06:28;;;;;;;83.20;30.37;;;;;;;-0.05;100.00;99669.62;4247891;82;21060;-88
2022/12/04 04:12:34;;;;;;;75.30;31.45;;;;;;;-0.02;100.00;99673.08;4278654;82;21092;-89
2022/12/04 04:25:12;;;;;;;81.47;30.68;;;;;;;0.03;100.00;99654.71;4277247;82;21553;-88
2022/12/04 04:31:28;;;;;;;84.13;30.23;;;;;;;0.06;100.00;99652.25;4277051;82;21010;-88
2022/12/04 04:37:46;;;;;;;67.30;30.07;;;;;;;0.08;100.00;99657.34;4283481;82;21100;-88
2022/12/04 04:43:53;;;;;;;80.87;32.33;;;;;;;0.11;100.00;99650.80;4281442;82;20977;-88
2022/12/04 04:49:57;;;;;;;86.37;30.55;;;;;;;0.15;100.00;99655.07;4280729;82;21017;-87
2022/12/04 04:56:05;;;;;;;70.52;29.23;;;;;;;0.20;100.00;99641.55;4277129;82;21060;-89
2022/12/04 05:02:08;;;;;;;68.10;29.30;;;;;;;0.20;100.00;99641.55;4280955;82;21042;-89
2022/12/04 05:08:10;;;;;;;80.87;28.75;;;;;;;0.23;100.00;99648.50;4274371;82;21497;-88
2022/12/04 05:14:11;;;;;;;64.27;26.62;;;;;;;0.27;100.00;99656.80;4282012;82;21002;-89
2022/12/04 05:20:13;;;;;;;73.52;27.30;;;;;;;0.26;100.00;99656.00;4280463;82;22259;-89
2022/12/04 05:26:14;;;;;;;75.03;28.32;;;;;;;0.26;100.00;99663.27;4280362;82;21708;-89
2022/12/04 05:32:17;;;;;;;68.40;27.20;;;;;;;0.26;100.00;99650.61;4284347;82;21044;-89
2022/12/04 05:38:26;;;;;;;58.02;24.92;;;;;;;0.26;100.00;99660.57;4280681;82;21105;-87
2022/12/04 05:44:28;;;;;;;67.10;24.47;;;;;;;0.24;100.00;99664.90;4282879;80;21021;-88
2022/12/04 05:50:30;;;;;;;56.10;25.00;;;;;;;0.24;100.00;99664.90;4284111;82;21029;-89
2022/12/04 05:56:32;;;;;;;64.60;26.85;;;;;;;0.26;100.00;99672.69;4279193;82;21061;-88
2022/12/04 06:02:43;;;;;;;;;;;;;;;;;;;;;
2022/12/04 06:08:49;;;;;;;58.78;26.10;;;;;;;0.26;100.00;99662.73;4244577;82;22074;-90
2022/12/04 06:14:51;;;;;;;69.80;27.93;;;;;;;0.26;100.00;99658.69;4277687;82;21073;-88
2022/12/04 06:20:57;;;;;;;62.70;25.00;;;;;;;0.29;100.00;99666.72;4279501;82;22200;-88
2022/12/04 06:27:01;;;;;;;74.80;29.07;;;;;;;0.27;100.00;99667.01;4280066;82;20982;-90
2022/12/04 06:33:05;;;;;;;;;;;;;;;0.27;100.00;99671.05;4249812;82;21065;-89
2022/12/04 06:39:08;;;;;;;73.87;25.40;;;;;;;0.29;100.00;99664.83;4251672;82;20139;-89
2022/12/04 06:45:10;;;;;;;69.75;27.42;;;;;;;0.28;100.00;99659.20;4254551;82;21014;-89
2022/12/04 06:51:19;;;;;;;68.67;27.62;;;;;;;0.30;100.00;99665.08;4253208;82;21720;-88
2022/12/04 06:57:20;;;;;;;53.65;25.35;;;;;;;0.32;100.00;99666.13;4229121;82;21065;-87
2022/12/04 07:03:24;;;;;;;57.35;23.35;;;;;;;0.22;100.00;99642.06;4255443;81;21017;-88
2022/12/04 07:09:26;;;;;;;59.10;26.20;;;;;;;0.32;100.00;99657.52;4208439;82;21081;-88
2022/12/04 07:15:31;;;;;;;58.65;26.37;;;;;;;0.32;100.00;99675.55;4253454;82;21014;-90
2022/12/04 07:21:34;;;;;;;58.98;26.37;;;;;;;0.32;100.00;99673.67;4255423;82;21641;-89
2022/12/04 07:27:36;;;;;;;58.45;24.77;;;;;;;0.22;100.00;99648.23;4251037;82;21025;-89
2022/12/04 07:33:39;;;;;;;57.85;24.20;;;;;;;0.38;100.00;99655.00;4270882;82;21005;-88
2022/12/04 07:39:41;;;;;;;55.05;26.17;;;;;;;0.39;100.00;99656.62;4287453;82;20962;-89
2022/12/04 07:45:43;;;;;;;54.30;24.47;;;;;;;0.40;100.00;99642.05;4275434;81;21041;-88
2022/12/04 07:51:45;;;;;;;55.50;25.80;;;;;;;0.42;100.00;99647.95;4283547;80;21104;-88
2022/12/04 07:57:47;;;;;;;49.20;25.15;;;;;;;0.43;100.00;99655.46;4177123;84;21068;-88
2022/12/04 08:03:56;;;;;;;51.73;24.63;;;;;;;0.40;100.00;99643.39;4208892;82;21202;-90
2022/12/04 08:09:58;;;;;;;55.10;25.90;;;;;;;0.42;100.00;99637.71;4191215;83;21046;-89
2022/12/04 08:16:05;;;;;;;58.65;25.97;;;;;;;0.47;100.00;99638.98;4210212;83;21022;-90
2022/12/04 08:22:07;;;;;;;56.30;25.48;;;;;;;0.48;100.00;99649.47;4207432;83;21062;-87
2022/12/04 08:28:08;;;;;;;52.23;25.77;;;;;;;0.51;100.00;99665.05;4204896;83;21363;-88
2022/12/04 08:34:10;;;;;;;60.10;25.92;;;;;;;0.53;100.00;99670.14;4211537;83;21479;-88
2022/12/04 08:40:12;;;;;;;53.08;26.00;;;;;;;0.56;100.00;99677.09;4210241;83;21034;-90
2022/12/04 08:46:16;;;;;;;55.75;27.20;;;;;;;0.61;100.00;99674.30;4191141;83;21064;-87
2022/12/04 08:52:18;;;;;;;54.73;25.57;;;;;;;0.69;100.00;99672.86;4193397;83;20995;-90
2022/12/04 08:58:19;;;;;;;50.00;23.77;;;;;;;0.71;100.00;99673.34;4211086;83;20995;-90
2022/12/04 09:04:21;;;;;;;60.30;26.50;;;;;;;0.69;100.00;99675.55;4209011;83;21594;-90
2022/12/04 09:10:25;;;;;;;47.70;22.77;;;;;;;0.74;100.00;99668.70;4195086;83;21913;-89
2022/12/04 09:16:27;;;;;;;52.08;25.75;;;;;;;0.80;100.00;99671.59;4210999;82;21014;-89
2022/12/04 09:22:33;;;;;;;54.25;26.25;;;;;;;0.81;100.00;99667.26;4207670;83;21746;-89
2022/12/04 09:28:37;;;;;;;58.85;27.20;;;;;;;0.88;100.00;99680.33;4208694;83;21018;-88
2022/12/04 09:34:38;;;;;;;59.53;27.75;;;;;;;0.93;100.00;99674.86;4161193;84;21021;-89
2022/12/04 09:40:52;;;;;;;58.48;26.52;;;;;;;0.97;100.00;99661.06;4137211;84;21048;-88
2022/12/04 09:47:02;;;;;;;59.77;27.05;;;;;;;0.99;100.00;99655.62;4099581;84;21896;-90
2022/12/04 09:53:20;;;;;;;56.08;25.72;;;;;;;1.05;100.00;99645.55;4138139;84;21025;-89
2022/12/04 09:59:26;;;;;;;54.10;26.23;;;;;;;1.07;100.00;99650.08;4138312;84;21060;-88
2022/12/04 10:05:56;;;;;;;49.80;23.03;;;;;;;1.10;100.00;99642.20;4141176;84;20981;-89
2022/12/04 10:12:24;;;;;;;54.55;27.05;;;;;;;1.14;100.00;99630.28;4137746;84;21010;-88
2022/12/04 10:18:57;;;;;;;57.70;27.58;;;;;;;1.21;100.00;99611.80;4136725;84;20993;-88
2022/12/04 10:25:13;;;;;;;59.58;27.35;;;;;;;1.29;100.00;99609.77;4114958;84;21024;-87
2022/12/04 10:31:15;;;;;;;59.40;27.13;;;;;;;1.33;100.00;99604.03;4139772;84;21966;-87
2022/12/04 10:37:17;;;;;;;62.38;28.60;;;;;;;1.38;100.00;99582.33;4191434;84;21013;-88
2022/12/04 10:43:44;;;;;;;57.53;29.72;;;;;;;1.44;100.00;99575.76;4185154;83;20974;-87
2022/12/04 10:49:47;;;;;;;60.03;28.70;;;;;;;1.53;100.00;99580.69;4182735;84;21045;-87
2022/12/04 10:55:51;;;;;;;57.03;29.42;;;;;;;1.60;100.00;99571.62;4187485;84;22007;-88
2022/12/04 11:02:30;;;;;;;62.17;32.15;;;;;;;1.67;100.00;99572.02;4189279;84;21803;-88
2022/12/04 11:08:45;;;;;;;63.60;32.80;;;;;;;1.76;100.00;99564.80;4185307;84;21532;-87
2022/12/04 11:14:47;;;;;;;65.25;34.90;;;;;;;1.86;100.00;99571.34;4200616;84;21358;-87
2022/12/04 11:21:03;;;;;;;69.65;35.45;;;;;;;1.92;100.00;99557.16;4190666;82;21065;-88
2022/12/04 11:27:06;;;;;;;62.70;33.67;;;;;;;2.02;100.00;99559.06;4188171;84;21157;-87
2022/12/04 11:40:07;;;;;;;64.30;36.35;;;;;;;2.19;100.00;99565.98;4184858;84;21037;-87
2022/12/04 11:46:17;;;;;;;64.53;35.92;;;;;;;2.27;100.00;99563.09;4186537;83;21141;-87
2022/12/04 11:52:33;;;;;;;63.08;35.75;;;;;;;2.35;100.00;99550.21;4186670;83;21084;-87
2022/12/04 11:58:46;;;;;;;57.30;32.40;;;;;;;2.47;100.00;99555.30;4164536;83;21610;-88
2022/12/04 12:05:08;;;;;;;57.60;31.82;;;;;;;2.54;100.00;99546.19;4284111;82;21055;-87
2022/12/04 12:11:29;;;;;;;55.88;32.33;;;;;;;2.67;100.00;99547.22;4286196;82;21477;-87
2022/12/04 12:17:42;;;;;;;52.03;30.77;;;;;;;2.78;100.00;99548.01;4282172;80;20990;-87
2022/12/04 12:31:14;;;;;;;52.75;29.92;;;;;;;2.95;100.00;99555.39;4290676;82;21538;-89
2022/12/04 12:37:45;;;;;;;59.40;31.45;;;;;;;2.99;100.00;99550.40;4279997;81;21025;-88
2022/12/04 12:44:04;;;;;;;53.70;31.10;;;;;;;3.06;100.00;99537.24;4282101;82;21061;-87
2022/12/04 12:50:23;;;;;;;56.00;32.23;;;;;;;3.08;100.00;99524.20;4253797;82;21068;-88
2022/12/04 12:56:37;;;;;;;48.95;29.10;;;;;;;3.11;100.00;99529.53;4279392;82;20997;-88
2022/12/04 13:10:13;;;;;;;51.70;30.02;;;;;;;3.14;100.00;99522.95;4279978;82;21025;-88
2022/12/04 13:16:25;;;;;;;54.10;30.77;;;;;;;3.17;100.00;99524.22;4279616;82;21022;-88
2022/12/04 13:22:35;;;;;;;50.03;28.75;;;;;;;3.19;100.00;99522.78;4248325;82;21947;-89
2022/12/04 13:36:05;;;;;;;66.53;36.53;;;;;;;3.18;100.00;99522.55;4258133;82;21086;-88
2022/12/04 13:42:32;;;;;;;68.15;39.20;;;;;;;3.07;100.00;99520.44;4306637;82;21053;-88
2022/12/04 13:48:40;;;;;;;56.28;32.30;;;;;;;3.06;100.00;99519.66;4180051;84;21084;-89
2022/12/04 13:54:42;;;;;;;70.65;39.92;;;;;;;3.03;100.00;99524.34;4205049;83;21637;-88
2022/12/04 14:00:43;;;;;;;62.95;35.25;;;;;;;2.94;100.00;99514.59;4207619;83;21026;-87
2022/12/04 14:06:49;;;;;;;54.95;31.65;;;;;;;2.84;100.00;99520.27;4207404;83;21066;-88
2022/12/04 14:13:05;;;;;;;46.67;24.87;;;;;;;2.77;100.00;99521.28;4208628;83;21042;-87
2022/12/04 14:19:07;;;;;;;40.07;22.03;;;;;;;2.75;100.00;99513.48;4189827;83;21046;-88
2022/12/04 14:25:18;;;;;;;37.35;20.15;;;;;;;2.80;100.00;99524.72;4210688;83;20967;-87
2022/12/04 14:31:32;;;;;;;39.83;22.13;;;;;;;2.83;100.00;99528.14;4213633;83;21027;-88
2022/12/04 14:44:44;;;;;;;45.10;24.23;;;;;;;2.77;100.00;99528.82;4230099;83;20984;-88
2022/12/04 15:05:31;;;;;;;46.48;24.85;;;;;;;2.35;100.00;99533.42;4128949;84;21007;-88
2022/12/04 15:18:38;;;;;;;52.65;26.87;;;;;;;2.14;100.00;99523.43;4186669;82;21522;-88
2022/12/04 15:32:06;;;;;;;56.18;26.97;;;;;;;1.92;100.00;99524.77;4085370;85;21583;-88
2022/12/04 16:11:40;;;;;;;46.02;24.80;;;;;;;1.57;100.00;99564.94;4283672;82;20977;-88
2022/12/04 16:17:42;;;;;;;54.27;27.20;;;;;;;1.56;100.00;99570.64;4297467;82;21851;-87
2022/12/04 16:23:44;;;;;;;52.98;28.05;;;;;;;1.53;100.00;99552.36;4203266;83;21015;-88
2022/12/04 16:29:55;;;;;;;51.95;26.97;;;;;;;1.49;100.00;99556.74;4188309;82;21014;-87
2022/12/04 16:36:24;;;;;;;54.90;27.67;;;;;;;1.44;100.00;99564.97;4289280;81;21546;-87
2022/12/04 16:42:49;;;;;;;63.83;29.35;;;;;;;1.42;100.00;99569.86;4279010;82;21684;-88
2022/12/04 16:48:56;;;;;;;57.20;29.18;;;;;;;1.36;100.00;99561.63;4280623;82;21052;-88
2022/12/04 17:01:56;;;;;;;52.90;28.12;;;;;;;1.30;100.00;99573.62;4284934;82;21031;-88
2022/12/04 17:08:25;;;;;;;61.92;31.17;;;;;;;1.27;100.00;99573.65;4288698;82;20997;-88
2022/12/04 17:14:27;;;;;;;66.02;32.38;;;;;;;1.25;100.00;99577.76;4185355;84;21064;-88
2022/12/04 17:20:30;;;;;;;60.40;29.12;;;;;;;1.21;100.00;99570.00;4249234;83;21034;-88
2022/12/04 17:27:21;;;;;;;60.05;29.55;;;;;;;1.16;100.00;99569.55;4210699;83;21077;-88
2022/12/04 17:33:51;;;;;;;56.53;29.05;;;;;;;1.12;100.00;99567.75;4213718;83;21463;-87
2022/12/04 17:39:52;;;;;;;59.40;28.23;;;;;;;1.06;100.00;99569.77;4185745;84;21434;-87
2022/12/04 17:45:55;;;;;;;56.80;28.85;;;;;;;1.02;100.00;99566.05;4290906;82;21047;-87
2022/12/04 17:51:57;;;;;;;55.58;27.32;;;;;;;0.98;100.00;99573.69;4278195;82;21063;-88
2022/12/04 17:57:58;;;;;;;62.55;29.87;;;;;;;0.95;100.00;99575.09;4299051;81;21041;-87
2022/12/04 18:04:03;;;;;;;58.63;29.50;;;;;;;0.91;100.00;99585.42;4288609;81;21667;-88
2022/12/04 18:10:06;;;;;;;60.70;30.15;;;;;;;0.89;100.00;99580.88;4283894;82;22002;-87
2022/12/04 18:16:30;;;;;;;56.37;27.58;;;;;;;0.86;100.00;99582.81;4272102;82;21545;-87
2022/12/04 18:22:31;;;;;;;62.15;28.87;;;;;;;0.86;100.00;99580.13;4293944;81;20990;-88
2022/12/04 18:28:46;;;;;;;60.17;29.27;;;;;;;0.82;100.00;99583.95;4281227;82;20958;-88
2022/12/04 18:35:12;;;;;;;61.02;27.82;;;;;;;0.80;100.00;99576.70;4317609;81;21467;-89
2022/12/04 18:54:25;;;;;;;57.60;28.70;;;;;;;0.73;100.00;99576.84;4204246;83;21001;-89
2022/12/04 19:00:40;;;;;;;58.30;28.95;;;;;;;0.74;100.00;99572.50;4205049;83;21004;-88
2022/12/04 19:14:01;;;;;;;60.52;28.90;;;;;;;0.60;100.00;99564.94;4221941;83;21048;-87
2022/12/04 19:26:47;;;;;;;59.10;29.70;;;;;;;0.72;100.00;99577.95;4202536;83;21033;-87
2022/12/04 19:33:09;;;;;;;63.95;30.43;;;;;;;0.73;100.00;99569.56;4197315;83;21005;-87
2022/12/04 19:39:32;;;;;;;57.62;28.67;;;;;;;0.74;100.00;99574.39;4214234;82;21016;-88
2022/12/04 19:45:48;;;;;;;61.23;31.30;;;;;;;0.76;100.00;99589.19;4268420;82;20931;-87
2022/12/04 19:52:08;;;;;;;73.72;36.00;;;;;;;0.75;100.00;99579.48;4277474;82;21029;-88
2022/12/04 19:58:34;;;;;;;69.55;32.80;;;;;;;0.77;100.00;99586.73;4257660;82;21001;-87
2022/12/04 20:04:54;;;;;;;66.82;32.48;;;;;;;0.78;100.00;99583.50;4288728;82;21060;-88
2022/12/04 20:11:27;;;;;;;60.20;28.87;;;;;;;0.80;100.00;99596.91;4277388;80;20957;-87
2022/12/04 20:17:44;;;;;;;72.05;35.78;;;;;;;0.80;100.00;99598.27;4284669;81;21013;-87
2022/12/04 20:23:52;;;;;;;66.33;31.85;;;;;;;0.80;100.00;99596.13;4281863;82;21517;-88
2022/12/04 20:30:01;;;;;;;59.27;29.50;;;;;;;0.77;100.00;99597.51;4276558;82;20977;-87
2022/12/04 20:36:19;;;;;;;62.40;29.10;;;;;;;0.78;100.00;99592.93;4291360;81;20974;-87
2022/12/04 20:42:28;;;;;;;67.15;29.60;;;;;;;0.77;100.00;99592.12;4293186;81;21849;-87
2022/12/04 20:48:37;;;;;;;117.70;63.28;;;;;;;0.73;100.00;99586.27;4270226;82;21012;-87
2022/12/04 21:01:47;;;;;;;58.33;28.40;;;;;;;0.71;100.00;99558.81;4270796;82;21065;-88
2022/12/04 21:08:54;;;;;;;64.50;30.17;;;;;;;0.71;100.00;99580.38;4302619;82;20913;-88
2022/12/04 21:21:26;;;;;;;62.00;30.95;;;;;;;0.69;100.00;99577.20;4277357;81;21064;-87
2022/12/04 21:27:29;;;;;;;64.45;29.63;;;;;;;0.72;100.00;99578.73;4282838;80;20993;-88
2022/12/04 21:33:48;;;;;;;66.40;32.15;;;;;;;0.72;100.00;99566.59;4277498;82;21002;-89
2022/12/04 21:40:12;;;;;;;67.35;35.25;;;;;;;0.70;100.00;99576.09;4303513;81;22017;-86
2022/12/04 21:46:14;;;;;;;64.50;30.60;;;;;;;0.67;100.00;99560.52;4280447;81;21453;-87
2022/12/04 21:52:18;;;;;;;69.58;34.48;;;;;;;0.68;100.00;99583.13;4282067;82;20966;-88
2022/12/04 21:58:22;;;;;;;64.72;31.17;;;;;;;0.70;100.00;99581.48;4284746;80;21021;-87
2022/12/04 22:04:24;;;;;;;74.85;35.20;;;;;;;0.71;100.00;99576.33;4283172;82;21584;-87
2022/12/04 22:10:26;;;;;;;69.25;32.33;;;;;;;0.75;100.00;99571.97;4278714;82;20997;-87
2022/12/04 22:16:28;;;;;;;67.40;33.50;;;;;;;0.76;100.00;99569.51;4284605;82;20991;-87
2022/12/04 22:22:29;;;;;;;69.32;32.88;;;;;;;0.78;100.00;99568.67;4273306;82;20946;-87
2022/12/04 22:28:31;;;;;;;67.05;32.05;;;;;;;0.75;100.00;99577.36;4284366;82;20974;-88
2022/12/04 22:34:33;;;;;;;63.40;31.82;;;;;;;0.69;100.00;99575.84;4282573;82;21050;-88
2022/12/04 22:40:37;;;;;;;65.80;32.58;;;;;;;0.67;100.00;99583.42;4280226;82;21013;-87
2022/12/04 22:46:50;;;;;;;69.40;32.25;;;;;;;0.68;100.00;99579.08;4283925;82;21014;-87
2022/12/04 22:52:58;;;;;;;66.53;32.58;;;;;;;0.65;100.00;99563.51;4276029;82;20989;-87
2022/12/04 22:59:15;;;;;;;70.47;33.80;;;;;;;0.64;100.00;99551.14;4097839;85;21075;-87
2022/12/04 23:05:18;;;;;;;65.25;32.78;;;;;;;0.64;100.00;99549.80;4114854;85;21094;-88
2022/12/04 23:11:20;;;;;;;66.87;32.90;;;;;;;0.60;100.00;99546.08;4277787;82;21040;-87
2022/12/04 23:17:22;;;;;;;56.63;29.00;;;;;;;0.56;100.00;99553.16;4285077;82;21537;-87
2022/12/04 23:23:25;;;;;;;66.62;32.40;;;;;;;0.54;100.00;99555.89;4281965;82;20973;-88
2022/12/04 23:29:48;;;;;;;65.28;31.42;;;;;;;0.51;100.00;99553.25;4282174;82;21033;-88
2022/12/04 23:35:59;;;;;;;65.45;31.02;;;;;;;0.52;100.00;99553.48;4283632;82;21526;-88
2022/12/04 23:42:00;;;;;;;65.83;31.60;;;;;;;0.56;100.00;99561.78;4285943;82;21002;-87
2022/12/04 23:48:01;;;;;;;68.17;32.30;;;;;;;0.56;100.00;99565.83;4273187;82;21006;-87
2022/12/04 23:54:04;;;;;;;68.75;31.93;;;;;;;0.53;100.00;99565.88;4283194;81;20943;-87
